createdAt,value
2018-05-25T00:01:01.960Z,0
2018-05-25T00:02:11.110Z,0
2018-05-25T00:03:19.975Z,0
2018-05-25T00:04:28.887Z,0
2018-05-25T00:05:37.753Z,0
2018-05-25T00:06:46.615Z,0
2018-05-25T00:07:55.479Z,0
2018-05-25T00:09:04.900Z,0
2018-05-25T00:10:14.213Z,0
2018-05-25T00:11:23.356Z,0
2018-05-25T00:12:32.224Z,0
2018-05-25T00:13:41.089Z,0
2018-05-25T00:14:49.952Z,0
2018-05-25T00:15:58.865Z,0
2018-05-25T00:17:07.729Z,0
2018-05-25T00:18:16.867Z,0
2018-05-25T00:19:25.725Z,0
2018-05-25T00:20:34.588Z,0
2018-05-25T00:21:43.501Z,0
2018-05-25T00:22:52.364Z,0
2018-05-25T00:24:01.227Z,0
2018-05-25T00:25:10.367Z,0
2018-05-25T00:26:19.233Z,0
2018-05-25T00:27:28.375Z,0
2018-05-25T00:28:37.513Z,0
2018-05-25T00:29:46.376Z,0
2018-05-25T00:30:55.790Z,0
2018-05-25T00:32:04.654Z,0
2018-05-25T00:33:13.617Z,0
2018-05-25T00:34:22.755Z,0
2018-05-25T00:35:31.619Z,0
2018-05-25T00:36:40.477Z,0
2018-05-25T00:37:49.341Z,0
2018-05-25T00:38:58.531Z,0
2018-05-25T00:40:07.397Z,0
2018-05-25T00:41:16.255Z,0
2018-05-25T00:42:25.120Z,0
2018-05-25T00:43:34.257Z,0
2018-05-25T00:44:43.118Z,0
2018-05-25T00:45:51.981Z,0
2018-05-25T00:47:00.843Z,0
2018-05-25T00:48:09.703Z,0
2018-05-25T00:49:18.567Z,0
2018-05-25T00:50:27.917Z,0
2018-05-25T00:51:36.746Z,0
2018-05-25T00:52:46.170Z,0
2018-05-25T00:53:55.308Z,0
2018-05-25T00:55:04.449Z,0
2018-05-25T00:56:13.308Z,0
2018-05-25T00:57:22.170Z,0
2018-05-25T00:58:31.034Z,0
2018-05-25T00:59:39.898Z,0
2018-05-25T01:00:48.763Z,0
2018-05-25T01:01:57.897Z,0
2018-05-25T01:03:07.040Z,0
2018-05-25T01:04:15.904Z,0
2018-05-25T01:05:25.044Z,0
2018-05-25T01:06:34.181Z,0
2018-05-25T01:07:43.407Z,0
2018-05-25T01:08:52.547Z,0
2018-05-25T01:10:01.429Z,0
2018-05-25T01:11:10.849Z,0
2018-05-25T01:12:19.990Z,0
2018-05-25T01:13:29.483Z,0
2018-05-25T01:14:38.349Z,0
2018-05-25T01:15:47.212Z,0
2018-05-25T01:16:56.074Z,0
2018-05-25T01:18:04.943Z,0
2018-05-25T01:19:14.511Z,0
2018-05-25T01:20:23.375Z,0
2018-05-25T01:21:32.515Z,0
2018-05-25T01:22:41.379Z,0
2018-05-25T01:23:50.524Z,0
2018-05-25T01:24:59.485Z,0
2018-05-25T01:26:08.624Z,0
2018-05-25T01:27:17.486Z,0
2018-05-25T01:28:26.352Z,0
2018-05-25T01:29:35.213Z,0
2018-05-25T01:30:44.401Z,0
2018-05-25T01:31:53.264Z,0
2018-05-25T01:33:02.123Z,0
2018-05-25T01:34:11.090Z,0
2018-05-25T01:35:19.953Z,0
2018-05-25T01:36:29.243Z,0
2018-05-25T01:37:38.377Z,0
2018-05-25T01:38:47.523Z,0
2018-05-25T01:39:56.657Z,0
2018-05-25T01:41:05.808Z,0
2018-05-25T01:42:14.814Z,0
2018-05-25T01:43:23.678Z,0
2018-05-25T01:44:32.539Z,0
2018-05-25T01:45:41.401Z,0
2018-05-25T01:46:50.266Z,0
2018-05-25T01:47:59.131Z,0
2018-05-25T01:49:08.544Z,0
2018-05-25T01:50:17.683Z,0
2018-05-25T01:51:27.100Z,0
2018-05-25T01:52:35.965Z,0
2018-05-25T01:53:44.980Z,0
2018-05-25T01:54:53.842Z,0
2018-05-25T01:56:02.705Z,0
2018-05-25T01:57:11.844Z,0
2018-05-25T01:58:20.719Z,0
2018-05-25T01:59:29.856Z,0
2018-05-25T02:00:38.719Z,0
2018-05-25T02:01:47.581Z,0
2018-05-25T02:02:56.448Z,0
2018-05-25T02:04:05.308Z,0
2018-05-25T02:05:14.171Z,0
2018-05-25T02:06:23.033Z,0
2018-05-25T02:07:31.897Z,0
2018-05-25T02:08:40.758Z,0
2018-05-25T02:09:50.456Z,0
2018-05-25T02:10:59.476Z,0
2018-05-25T02:12:08.611Z,0
2018-05-25T02:13:17.472Z,0
2018-05-25T02:14:26.334Z,0
2018-05-25T02:15:35.192Z,0
2018-05-25T02:16:44.109Z,0
2018-05-25T02:17:53.253Z,0
2018-05-25T02:19:02.119Z,0
2018-05-25T02:20:11.263Z,0
2018-05-25T02:21:20.127Z,0
2018-05-25T02:22:29.141Z,0
2018-05-25T02:23:38.002Z,0
2018-05-25T02:24:46.861Z,0
2018-05-25T02:25:55.999Z,0
2018-05-25T02:27:05.144Z,0
2018-05-25T02:28:14.010Z,0
2018-05-25T02:29:22.869Z,0
2018-05-25T02:30:32.013Z,0
2018-05-25T02:31:40.872Z,0
2018-05-25T02:32:49.756Z,0
2018-05-25T02:33:58.710Z,0
2018-05-25T02:35:07.573Z,0
2018-05-25T02:36:16.437Z,0
2018-05-25T02:37:25.577Z,0
2018-05-25T02:38:34.522Z,0
2018-05-25T02:39:43.413Z,0
2018-05-25T02:40:52.844Z,0
2018-05-25T02:42:01.717Z,0
2018-05-25T02:43:10.575Z,0
2018-05-25T02:44:19.433Z,0
2018-05-25T02:45:28.620Z,0
2018-05-25T02:46:37.483Z,0
2018-05-25T02:47:46.347Z,0
2018-05-25T02:48:55.687Z,0
2018-05-25T02:50:04.601Z,0
2018-05-25T02:51:13.859Z,0
2018-05-25T02:52:23.284Z,0
2018-05-25T02:53:32.429Z,0
2018-05-25T02:54:41.291Z,0
2018-05-25T02:55:50.440Z,0
2018-05-25T02:56:59.595Z,0
2018-05-25T02:58:08.456Z,0
2018-05-25T02:59:17.600Z,0
2018-05-25T03:00:26.466Z,0
2018-05-25T03:01:35.332Z,0
2018-05-25T03:02:44.820Z,5
2018-05-25T03:03:53.680Z,5
2018-05-25T03:05:02.827Z,5
2018-05-25T03:06:12.271Z,5
2018-05-25T03:07:21.694Z,5
2018-05-25T03:08:30.560Z,5
2018-05-25T03:09:39.421Z,5
2018-05-25T03:10:48.282Z,5
2018-05-25T03:11:57.706Z,10
2018-05-25T03:13:06.566Z,10
2018-05-25T03:14:15.481Z,10
2018-05-25T03:15:24.346Z,10
2018-05-25T03:16:33.483Z,10
2018-05-25T03:17:42.347Z,10
2018-05-25T03:18:51.211Z,15
2018-05-25T03:20:00.626Z,15
2018-05-25T03:21:09.492Z,15
2018-05-25T03:22:18.349Z,15
2018-05-25T03:23:27.215Z,15
2018-05-25T03:24:36.072Z,20
2018-05-25T03:25:45.310Z,20
2018-05-25T03:26:54.171Z,20
2018-05-25T03:28:03.033Z,25
2018-05-25T03:29:12.169Z,25
2018-05-25T03:30:21.036Z,25
2018-05-25T03:31:30.574Z,25
2018-05-25T03:32:39.427Z,30
2018-05-25T03:33:48.289Z,30
2018-05-25T03:34:57.152Z,30
2018-05-25T03:36:06.015Z,35
2018-05-25T03:37:14.927Z,35
2018-05-25T03:38:23.789Z,40
2018-05-25T03:39:32.652Z,40
2018-05-25T03:40:41.798Z,40
2018-05-25T03:41:50.671Z,45
2018-05-25T03:42:59.521Z,45
2018-05-25T03:44:08.381Z,45
2018-05-25T03:45:17.244Z,50
2018-05-25T03:46:26.106Z,50
2018-05-25T03:47:34.969Z,55
2018-05-25T03:48:44.184Z,55
2018-05-25T03:49:53.045Z,55
2018-05-25T03:51:01.911Z,60
2018-05-25T03:52:11.049Z,60
2018-05-25T03:53:19.916Z,60
2018-05-25T03:54:29.263Z,60
2018-05-25T03:55:38.443Z,65
2018-05-25T03:56:47.305Z,65
2018-05-25T03:57:56.165Z,65
2018-05-25T03:59:05.027Z,70
2018-05-25T04:00:14.090Z,70
2018-05-25T04:01:22.963Z,70
2018-05-25T04:02:31.817Z,70
2018-05-25T04:03:40.679Z,75
2018-05-25T04:04:49.817Z,75
2018-05-25T04:05:58.836Z,75
2018-05-25T04:07:07.979Z,75
2018-05-25T04:08:17.121Z,80
2018-05-25T04:09:25.984Z,80
2018-05-25T04:10:34.847Z,80
2018-05-25T04:11:43.907Z,80
2018-05-25T04:12:53.060Z,85
2018-05-25T04:14:01.920Z,85
2018-05-25T04:15:10.785Z,85
2018-05-25T04:16:19.693Z,85
2018-05-25T04:17:28.986Z,85
2018-05-25T04:18:37.850Z,85
2018-05-25T04:19:46.709Z,90
2018-05-25T04:20:55.572Z,90
2018-05-25T04:22:04.433Z,90
2018-05-25T04:23:13.295Z,90
2018-05-25T04:24:22.156Z,90
2018-05-25T04:25:31.024Z,95
2018-05-25T04:26:39.889Z,95
2018-05-25T04:27:49.033Z,95
2018-05-25T04:28:58.044Z,95
2018-05-25T04:30:06.913Z,95
2018-05-25T04:31:15.769Z,100
2018-05-25T04:32:24.628Z,100
2018-05-25T04:33:33.770Z,100
2018-05-25T04:34:42.630Z,100
2018-05-25T04:35:51.495Z,100
2018-05-25T04:37:00.918Z,105
2018-05-25T04:38:09.779Z,105
2018-05-25T04:39:18.929Z,105
2018-05-25T04:40:28.221Z,105
2018-05-25T04:41:37.082Z,105
2018-05-25T04:42:46.225Z,105
2018-05-25T04:43:55.083Z,110
2018-05-25T04:45:04.223Z,110
2018-05-25T04:46:13.440Z,110
2018-05-25T04:47:22.305Z,110
2018-05-25T04:48:31.169Z,110
2018-05-25T04:49:40.030Z,115
2018-05-25T04:50:48.893Z,115
2018-05-25T04:51:58.084Z,115
2018-05-25T04:53:07.270Z,115
2018-05-25T04:54:16.131Z,120
2018-05-25T04:55:24.992Z,115
2018-05-25T04:56:33.853Z,115
2018-05-25T04:57:43.045Z,120
2018-05-25T04:58:52.209Z,120
2018-05-25T05:00:01.057Z,120
2018-05-25T05:01:10.203Z,120
2018-05-25T05:02:19.067Z,120
2018-05-25T05:03:28.033Z,120
2018-05-25T05:04:36.889Z,120
2018-05-25T05:05:45.750Z,125
2018-05-25T05:06:54.615Z,125
2018-05-25T05:08:03.474Z,125
2018-05-25T05:09:12.438Z,125
2018-05-25T05:10:21.298Z,125
2018-05-25T05:11:30.160Z,125
2018-05-25T05:12:39.022Z,130
2018-05-25T05:13:48.165Z,130
2018-05-25T05:14:57.279Z,130
2018-05-25T05:16:06.417Z,130
2018-05-25T05:17:15.278Z,130
2018-05-25T05:18:24.142Z,130
2018-05-25T05:19:33.006Z,130
2018-05-25T05:20:42.027Z,130
2018-05-25T05:21:50.889Z,135
2018-05-25T05:23:00.041Z,135
2018-05-25T05:24:09.186Z,135
2018-05-25T05:25:18.329Z,135
2018-05-25T05:26:27.857Z,135
2018-05-25T05:27:36.719Z,135
2018-05-25T05:28:45.582Z,135
2018-05-25T05:29:54.447Z,135
2018-05-25T05:31:03.590Z,135
2018-05-25T05:32:12.458Z,140
2018-05-25T05:33:21.322Z,140
2018-05-25T05:34:30.462Z,140
2018-05-25T05:35:39.323Z,140
2018-05-25T05:36:48.471Z,140
2018-05-25T05:37:57.486Z,140
2018-05-25T05:39:06.349Z,140
2018-05-25T05:40:15.489Z,140
2018-05-25T05:41:24.352Z,140
2018-05-25T05:42:33.498Z,145
2018-05-25T05:43:43.555Z,145
2018-05-25T05:44:52.414Z,145
2018-05-25T05:46:01.557Z,145
2018-05-25T05:47:10.425Z,145
2018-05-25T05:48:19.332Z,145
2018-05-25T05:49:28.394Z,150
2018-05-25T05:50:37.538Z,150
2018-05-25T05:51:46.400Z,150
2018-05-25T05:52:55.265Z,145
2018-05-25T05:54:04.129Z,150
2018-05-25T05:55:13.040Z,150
2018-05-25T05:56:21.904Z,150
2018-05-25T05:57:31.047Z,150
2018-05-25T05:58:40.188Z,150
2018-05-25T05:59:49.050Z,150
2018-05-25T06:00:58.064Z,150
2018-05-25T06:02:07.210Z,155
2018-05-25T06:03:16.068Z,155
2018-05-25T06:04:24.970Z,155
2018-05-25T06:05:33.806Z,155
2018-05-25T06:06:42.953Z,155
2018-05-25T06:07:52.382Z,155
2018-05-25T06:09:01.248Z,155
2018-05-25T06:10:10.394Z,155
2018-05-25T06:11:19.540Z,160
2018-05-25T06:12:28.450Z,160
2018-05-25T06:13:37.267Z,160
2018-05-25T06:14:46.407Z,160
2018-05-25T06:15:55.269Z,160
2018-05-25T06:17:04.137Z,160
2018-05-25T06:18:13.108Z,165
2018-05-25T06:19:21.975Z,165
2018-05-25T06:20:31.115Z,165
2018-05-25T06:21:39.980Z,170
2018-05-25T06:22:48.845Z,170
2018-05-25T06:23:58.095Z,170
2018-05-25T06:25:07.234Z,170
2018-05-25T06:26:16.152Z,170
2018-05-25T06:27:25.012Z,170
2018-05-25T06:28:33.872Z,170
2018-05-25T06:29:42.889Z,170
2018-05-25T06:30:52.032Z,170
2018-05-25T06:32:00.894Z,175
2018-05-25T06:33:09.759Z,175
2018-05-25T06:34:18.622Z,175
2018-05-25T06:35:28.017Z,175
2018-05-25T06:36:37.157Z,175
2018-05-25T06:37:46.021Z,175
2018-05-25T06:38:55.165Z,175
2018-05-25T06:40:04.032Z,175
2018-05-25T06:41:13.247Z,170
2018-05-25T06:42:22.126Z,170
2018-05-25T06:43:30.990Z,170
2018-05-25T06:44:40.140Z,170
2018-05-25T06:45:49.570Z,170
2018-05-25T06:46:58.482Z,170
2018-05-25T06:48:07.349Z,170
2018-05-25T06:49:16.213Z,170
2018-05-25T06:50:25.078Z,170
2018-05-25T06:51:33.941Z,170
2018-05-25T06:52:42.956Z,170
2018-05-25T06:53:51.821Z,170
2018-05-25T06:55:00.689Z,170
2018-05-25T06:56:09.557Z,170
2018-05-25T06:57:18.416Z,170
2018-05-25T06:58:27.734Z,170
2018-05-25T06:59:36.878Z,175
2018-05-25T07:00:45.741Z,175
2018-05-25T07:01:54.608Z,175
2018-05-25T07:03:04.033Z,175
2018-05-25T07:04:13.510Z,175
2018-05-25T07:05:22.657Z,175
2018-05-25T07:06:31.792Z,175
2018-05-25T07:07:40.657Z,175
2018-05-25T07:08:49.523Z,180
2018-05-25T07:09:58.768Z,175
2018-05-25T07:11:07.910Z,175
2018-05-25T07:12:16.776Z,175
2018-05-25T07:13:25.652Z,180
2018-05-25T07:14:34.509Z,180
2018-05-25T07:15:43.423Z,180
2018-05-25T07:16:52.570Z,180
2018-05-25T07:18:01.436Z,180
2018-05-25T07:19:10.301Z,180
2018-05-25T07:20:19.165Z,185
2018-05-25T07:21:28.353Z,185
2018-05-25T07:22:37.217Z,185
2018-05-25T07:23:46.081Z,185
2018-05-25T07:24:55.224Z,190
2018-05-25T07:26:04.131Z,190
2018-05-25T07:27:13.926Z,190
2018-05-25T07:28:22.791Z,190
2018-05-25T07:29:31.654Z,195
2018-05-25T07:30:40.518Z,195
2018-05-25T07:31:49.656Z,195
2018-05-25T07:32:59.253Z,195
2018-05-25T07:34:08.676Z,195
2018-05-25T07:35:17.541Z,195
2018-05-25T07:36:26.407Z,190
2018-05-25T07:37:35.270Z,195
2018-05-25T07:38:44.289Z,195
2018-05-25T07:39:53.148Z,195
2018-05-25T07:41:02.293Z,200
2018-05-25T07:42:11.156Z,200
2018-05-25T07:43:20.298Z,200
2018-05-25T07:44:29.262Z,200
2018-05-25T07:45:38.404Z,200
2018-05-25T07:46:47.271Z,200
2018-05-25T07:47:56.139Z,200
2018-05-25T07:49:05.401Z,200
2018-05-25T07:50:14.549Z,200
2018-05-25T07:51:23.411Z,200
2018-05-25T07:52:32.278Z,200
2018-05-25T07:53:41.421Z,200
2018-05-25T07:54:50.289Z,200
2018-05-25T07:55:59.633Z,200
2018-05-25T07:57:08.776Z,200
2018-05-25T07:58:17.641Z,200
2018-05-25T07:59:26.502Z,195
2018-05-25T08:00:35.366Z,200
2018-05-25T08:01:44.282Z,200
2018-05-25T08:02:53.147Z,200
2018-05-25T08:04:02.010Z,200
2018-05-25T08:05:10.875Z,200
2018-05-25T08:06:20.115Z,205
2018-05-25T08:07:29.082Z,200
2018-05-25T08:08:37.948Z,200
2018-05-25T08:09:47.097Z,200
2018-05-25T08:10:55.967Z,200
2018-05-25T08:12:04.834Z,200
2018-05-25T08:13:13.801Z,200
2018-05-25T08:14:22.664Z,200
2018-05-25T08:15:31.531Z,200
2018-05-25T08:16:40.392Z,200
2018-05-25T08:17:49.260Z,200
2018-05-25T08:18:58.753Z,205
2018-05-25T08:20:07.901Z,200
2018-05-25T08:21:16.760Z,200
2018-05-25T08:22:25.626Z,205
2018-05-25T08:23:34.489Z,200
2018-05-25T08:24:43.502Z,205
2018-05-25T08:25:52.369Z,205
2018-05-25T08:27:01.235Z,205
2018-05-25T08:28:10.101Z,205
2018-05-25T08:29:19.528Z,205
2018-05-25T08:30:28.829Z,210
2018-05-25T08:31:38.256Z,210
2018-05-25T08:32:47.125Z,210
2018-05-25T08:33:56.265Z,210
2018-05-25T08:35:05.408Z,210
2018-05-25T08:36:14.703Z,205
2018-05-25T08:37:23.569Z,210
2018-05-25T08:38:32.433Z,210
2018-05-25T08:39:41.301Z,210
2018-05-25T08:40:50.171Z,210
2018-05-25T08:41:59.664Z,210
2018-05-25T08:43:08.529Z,215
2018-05-25T08:44:17.394Z,210
2018-05-25T08:45:26.261Z,210
2018-05-25T08:46:35.128Z,215
2018-05-25T08:47:43.998Z,220
2018-05-25T08:48:52.862Z,220
2018-05-25T08:50:01.731Z,215
2018-05-25T08:51:10.598Z,220
2018-05-25T08:52:19.464Z,225
2018-05-25T08:53:28.480Z,225
2018-05-25T08:54:37.624Z,230
2018-05-25T08:55:46.768Z,225
2018-05-25T08:56:55.635Z,220
2018-05-25T08:58:04.497Z,220
2018-05-25T08:59:13.516Z,220
2018-05-25T09:00:22.386Z,220
2018-05-25T09:01:31.530Z,220
2018-05-25T09:02:40.396Z,220
2018-05-25T09:03:49.542Z,220
2018-05-25T09:04:58.788Z,220
2018-05-25T09:06:07.653Z,225
2018-05-25T09:07:16.520Z,230
2018-05-25T09:08:25.383Z,235
2018-05-25T09:09:34.532Z,230
2018-05-25T09:10:43.725Z,230
2018-05-25T09:11:52.591Z,225
2018-05-25T09:13:01.457Z,225
2018-05-25T09:14:10.324Z,225
2018-05-25T09:15:19.190Z,230
2018-05-25T09:16:28.066Z,230
2018-05-25T09:17:36.927Z,225
2018-05-25T09:18:45.793Z,230
2018-05-25T09:19:54.662Z,230
2018-05-25T09:21:03.529Z,230
2018-05-25T09:22:12.449Z,230
2018-05-25T09:23:21.318Z,230
2018-05-25T09:24:30.185Z,230
2018-05-25T09:25:39.054Z,230
2018-05-25T09:26:47.923Z,235
2018-05-25T09:27:56.941Z,235
2018-05-25T09:29:05.808Z,240
2018-05-25T09:30:14.954Z,235
2018-05-25T09:31:24.376Z,235
2018-05-25T09:32:33.523Z,235
2018-05-25T09:33:42.919Z,240
2018-05-25T09:34:51.785Z,235
2018-05-25T09:36:00.649Z,235
2018-05-25T09:37:09.515Z,240
2018-05-25T09:38:18.380Z,240
2018-05-25T09:39:27.774Z,245
2018-05-25T09:40:36.640Z,245
2018-05-25T09:41:45.514Z,245
2018-05-25T09:42:54.383Z,245
2018-05-25T09:44:03.243Z,250
2018-05-25T09:45:12.162Z,250
2018-05-25T09:46:21.308Z,250
2018-05-25T09:47:30.452Z,250
2018-05-25T09:48:39.321Z,255
2018-05-25T09:49:48.193Z,250
2018-05-25T09:50:57.058Z,260
2018-05-25T09:52:05.926Z,255
2018-05-25T09:53:14.789Z,265
2018-05-25T09:54:23.656Z,235
2018-05-25T09:55:32.525Z,260
2018-05-25T09:56:41.445Z,265
2018-05-25T09:57:50.864Z,275
2018-05-25T09:59:00.016Z,265
2018-05-25T10:00:09.437Z,265
2018-05-25T10:01:18.303Z,265
2018-05-25T10:02:27.522Z,265
2018-05-25T10:03:36.388Z,290
2018-05-25T10:04:45.256Z,300
2018-05-25T10:05:54.120Z,280
2018-05-25T10:07:02.991Z,270
2018-05-25T10:08:12.008Z,265
2018-05-25T10:09:20.876Z,260
2018-05-25T10:10:29.745Z,260
2018-05-25T10:11:38.608Z,260
2018-05-25T10:12:47.754Z,265
2018-05-25T10:13:56.670Z,265
2018-05-25T10:15:05.538Z,270
2018-05-25T10:16:14.403Z,270
2018-05-25T10:17:23.276Z,280
2018-05-25T10:18:32.141Z,280
2018-05-25T10:19:41.358Z,280
2018-05-25T10:20:50.229Z,295
2018-05-25T10:21:59.374Z,300
2018-05-25T10:23:08.244Z,305
2018-05-25T10:24:17.389Z,300
2018-05-25T10:25:26.408Z,295
2018-05-25T10:26:35.278Z,295
2018-05-25T10:27:44.422Z,295
2018-05-25T10:28:53.682Z,295
2018-05-25T10:30:02.555Z,295
2018-05-25T10:31:11.848Z,305
2018-05-25T10:32:20.714Z,310
2018-05-25T10:33:29.585Z,310
2018-05-25T10:34:38.451Z,315
2018-05-25T10:35:47.595Z,320
2018-05-25T10:36:56.512Z,320
2018-05-25T10:38:05.377Z,320
2018-05-25T10:39:14.267Z,315
2018-05-25T10:40:23.118Z,325
2018-05-25T10:41:31.987Z,355
2018-05-25T10:42:41.005Z,360
2018-05-25T10:43:49.875Z,350
2018-05-25T10:44:58.742Z,330
2018-05-25T10:46:07.608Z,320
2018-05-25T10:47:16.779Z,320
2018-05-25T10:48:25.690Z,340
2018-05-25T10:49:34.560Z,350
2018-05-25T10:50:43.429Z,350
2018-05-25T10:51:52.297Z,345
2018-05-25T10:53:01.168Z,340
2018-05-25T10:54:10.517Z,315
2018-05-25T10:55:19.384Z,355
2018-05-25T10:56:28.250Z,430
2018-05-25T10:57:37.119Z,420
2018-05-25T10:58:45.987Z,395
2018-05-25T10:59:54.855Z,360
2018-05-25T11:01:03.727Z,345
2018-05-25T11:02:12.602Z,335
2018-05-25T11:03:21.753Z,345
2018-05-25T11:04:31.179Z,335
2018-05-25T11:05:40.145Z,345
2018-05-25T11:06:49.011Z,335
2018-05-25T11:07:57.878Z,325
2018-05-25T11:09:06.744Z,315
2018-05-25T11:10:15.611Z,315
2018-05-25T11:11:24.911Z,315
2018-05-25T11:12:33.777Z,320
2018-05-25T11:13:42.645Z,320
2018-05-25T11:14:51.513Z,325
2018-05-25T11:16:00.380Z,320
2018-05-25T11:17:09.624Z,320
2018-05-25T11:18:18.497Z,320
2018-05-25T11:19:27.976Z,325
2018-05-25T11:20:36.844Z,320
2018-05-25T11:21:45.992Z,320
2018-05-25T11:22:55.214Z,320
2018-05-25T11:24:04.365Z,325
2018-05-25T11:25:13.235Z,325
2018-05-25T11:26:22.383Z,330
2018-05-25T11:27:31.249Z,335
2018-05-25T11:28:40.168Z,340
2018-05-25T11:29:49.040Z,335
2018-05-25T11:30:58.184Z,335
2018-05-25T11:32:07.053Z,335
2018-05-25T11:33:15.925Z,335
2018-05-25T11:34:25.273Z,335
2018-05-25T11:35:34.143Z,335
2018-05-25T11:36:43.010Z,340
2018-05-25T11:37:52.162Z,345
2018-05-25T11:39:01.032Z,345
2018-05-25T11:40:10.003Z,345
2018-05-25T11:41:18.872Z,345
2018-05-25T11:42:27.740Z,350
2018-05-25T11:43:36.609Z,355
2018-05-25T11:44:45.478Z,365
2018-05-25T11:45:55.052Z,375
2018-05-25T11:47:03.920Z,385
2018-05-25T11:48:12.791Z,390
2018-05-25T11:49:22.691Z,415
2018-05-25T11:50:31.561Z,720
2018-05-25T11:51:41.713Z,2370
2018-05-25T11:52:50.858Z,2910
2018-05-25T11:53:59.736Z,2900
2018-05-25T11:55:08.599Z,2720
2018-05-25T11:56:17.470Z,2855
2018-05-25T11:57:26.793Z,3140
2018-05-25T11:58:35.941Z,2935
2018-05-25T11:59:45.093Z,2685
2018-05-25T12:00:54.238Z,2795
2018-05-25T12:02:03.388Z,3035
2018-05-25T12:03:12.510Z,2640
2018-05-25T12:04:21.383Z,2775
2018-05-25T12:05:30.257Z,3185
2018-05-25T12:06:39.490Z,3115
2018-05-25T12:07:48.336Z,2845
2018-05-25T12:08:57.310Z,2885
2018-05-25T12:10:06.181Z,3330
2018-05-25T12:11:15.057Z,3390
2018-05-25T12:12:23.934Z,3205
2018-05-25T12:13:33.082Z,3065
2018-05-25T12:14:42.059Z,3030
2018-05-25T12:15:50.933Z,2945
2018-05-25T12:17:00.094Z,2790
2018-05-25T12:18:09.243Z,3335
2018-05-25T12:19:18.397Z,3560
2018-05-25T12:20:27.422Z,3410
2018-05-25T12:21:36.301Z,965
2018-05-25T12:22:45.176Z,3350
2018-05-25T12:23:54.055Z,1685
2018-05-25T12:25:02.928Z,3485
2018-05-25T12:26:11.805Z,3820
2018-05-25T12:27:20.682Z,3675
2018-05-25T12:28:29.556Z,3575
2018-05-25T12:29:38.433Z,3400
2018-05-25T12:30:47.311Z,3540
2018-05-25T12:31:56.239Z,3470
2018-05-25T12:33:05.116Z,3570
2018-05-25T12:34:14.372Z,3705
2018-05-25T12:35:23.200Z,3460
2018-05-25T12:36:32.088Z,3500
2018-05-25T12:37:41.227Z,3390
2018-05-25T12:38:50.384Z,3435
2018-05-25T12:39:59.267Z,3675
2018-05-25T12:41:08.443Z,3550
2018-05-25T12:42:17.887Z,3450
2018-05-25T12:43:26.917Z,3670
2018-05-25T12:44:35.803Z,3690
2018-05-25T12:45:44.683Z,3350
2018-05-25T12:46:53.565Z,3590
2018-05-25T12:48:02.445Z,3305
2018-05-25T12:49:11.475Z,3290
2018-05-25T12:50:20.641Z,3300
2018-05-25T12:51:29.522Z,3460
2018-05-25T12:52:38.402Z,3755
2018-05-25T12:53:47.561Z,3460
2018-05-25T12:54:56.693Z,3630
2018-05-25T12:56:05.575Z,3660
2018-05-25T12:57:14.455Z,3495
2018-05-25T12:58:23.612Z,3535
2018-05-25T12:59:32.492Z,3530
2018-05-25T13:00:41.523Z,3830
2018-05-25T13:01:50.965Z,3845
2018-05-25T13:03:00.121Z,3745
2018-05-25T13:04:09.003Z,3530
2018-05-25T13:05:18.161Z,3320
2018-05-25T13:06:27.244Z,3630
2018-05-25T13:07:36.405Z,3765
2018-05-25T13:08:45.286Z,3660
2018-05-25T13:09:54.446Z,3750
2018-05-25T13:11:03.605Z,3625
2018-05-25T13:12:12.536Z,3010
2018-05-25T13:13:21.702Z,3660
2018-05-25T13:14:30.859Z,3490
2018-05-25T13:15:39.740Z,3730
2018-05-25T13:16:48.624Z,3700
2018-05-25T13:17:57.929Z,3500
2018-05-25T13:19:06.809Z,3495
2018-05-25T13:20:15.690Z,3650
2018-05-25T13:21:25.131Z,3590
2018-05-25T13:22:34.014Z,3390
2018-05-25T13:23:43.146Z,3660
2018-05-25T13:24:52.312Z,3850
2018-05-25T13:26:01.747Z,3400
2018-05-25T13:27:10.906Z,3560
2018-05-25T13:28:19.793Z,900
2018-05-25T13:29:29.400Z,3835
2018-05-25T13:30:38.282Z,3215
2018-05-25T13:31:47.165Z,3690
2018-05-25T13:32:56.045Z,3560
2018-05-25T13:34:04.932Z,3920
2018-05-25T13:35:13.865Z,3935
2018-05-25T13:36:22.744Z,4050
2018-05-25T13:37:31.906Z,2795
2018-05-25T13:38:40.790Z,3770
2018-05-25T13:39:49.958Z,3700
2018-05-25T13:40:58.890Z,3655
2018-05-25T13:42:08.323Z,3640
2018-05-25T13:43:17.204Z,3735
2018-05-25T13:44:26.091Z,3965
2018-05-25T13:45:34.975Z,3985
2018-05-25T13:46:43.857Z,3830
2018-05-25T13:47:53.019Z,3895
2018-05-25T13:49:01.904Z,4115
2018-05-25T13:50:10.793Z,4130
2018-05-25T13:51:19.677Z,3995
2018-05-25T13:52:28.662Z,3985
2018-05-25T13:53:37.548Z,3750
2018-05-25T13:54:46.433Z,3975
2018-05-25T13:55:55.316Z,4035
2018-05-25T13:57:04.203Z,3985
2018-05-25T13:58:13.414Z,2010
2018-05-25T13:59:22.573Z,695
2018-05-25T14:00:31.738Z,645
2018-05-25T14:01:40.626Z,580
2018-05-25T14:02:49.508Z,560
2018-05-25T14:03:58.817Z,625
2018-05-25T14:05:07.976Z,525
2018-05-25T14:06:16.855Z,525
2018-05-25T14:07:25.739Z,570
2018-05-25T14:08:34.617Z,3465
2018-05-25T14:09:43.495Z,685
2018-05-25T14:10:52.377Z,2400
2018-05-25T14:12:01.533Z,735
2018-05-25T14:13:10.687Z,655
2018-05-25T14:14:19.564Z,635
2018-05-25T14:15:28.544Z,650
2018-05-25T14:16:37.418Z,685
2018-05-25T14:17:46.576Z,655
2018-05-25T14:18:55.456Z,1140
2018-05-25T14:20:04.343Z,650
2018-05-25T14:21:14.097Z,595
2018-05-25T14:22:23.084Z,575
2018-05-25T14:23:32.233Z,575
2018-05-25T14:24:41.388Z,615
2018-05-25T14:25:50.541Z,705
2018-05-25T14:26:59.766Z,815
2018-05-25T14:28:08.640Z,985
2018-05-25T14:29:17.509Z,1545
2018-05-25T14:30:26.662Z,3255
2018-05-25T14:31:35.600Z,3360
2018-05-25T14:32:44.864Z,1825
2018-05-25T14:33:53.842Z,900
2018-05-25T14:35:02.725Z,785
2018-05-25T14:36:11.913Z,720
2018-05-25T14:37:20.794Z,720
2018-05-25T14:38:29.722Z,1505
2018-05-25T14:39:38.598Z,625
2018-05-25T14:40:47.474Z,615
2018-05-25T14:41:56.347Z,675
2018-05-25T14:43:05.512Z,785
2018-05-25T14:44:14.537Z,910
2018-05-25T14:45:23.690Z,960
2018-05-25T14:46:32.844Z,1230
2018-05-25T14:47:41.724Z,2890
2018-05-25T14:48:50.596Z,910
2018-05-25T14:49:59.521Z,960
2018-05-25T14:51:08.396Z,1750
2018-05-25T14:52:17.271Z,935
2018-05-25T14:53:26.141Z,865
2018-05-25T14:54:35.300Z,925
2018-05-25T14:55:44.419Z,1085
2018-05-25T14:56:53.296Z,2630
2018-05-25T14:58:02.167Z,1190
2018-05-25T14:59:11.364Z,2205
2018-05-25T15:00:20.279Z,2660
2018-05-25T15:01:29.468Z,2350
2018-05-25T15:02:38.618Z,2170
2018-05-25T15:03:47.501Z,1200
2018-05-25T15:04:56.372Z,1105
2018-05-25T15:06:05.264Z,2575
2018-05-25T15:07:14.273Z,3405
2018-05-25T15:08:23.150Z,3305
2018-05-25T15:09:32.303Z,2780
2018-05-25T15:10:41.181Z,1155
2018-05-25T15:11:50.055Z,865
2018-05-25T15:12:59.318Z,1120
2018-05-25T15:14:08.480Z,2265
2018-05-25T15:15:17.359Z,785
2018-05-25T15:16:26.230Z,1640
2018-05-25T15:17:35.106Z,575
2018-05-25T15:18:44.313Z,500
2018-05-25T15:19:53.190Z,485
2018-05-25T15:21:02.066Z,455
2018-05-25T15:22:11.525Z,440
2018-05-25T15:23:20.959Z,430
2018-05-25T15:24:29.931Z,415
2018-05-25T15:25:38.808Z,405
2018-05-25T15:26:47.682Z,395
2018-05-25T15:27:56.557Z,405
2018-05-25T15:29:05.431Z,405
2018-05-25T15:30:14.659Z,420
2018-05-25T15:31:23.817Z,430
2018-05-25T15:32:33.225Z,445
2018-05-25T15:33:42.179Z,460
2018-05-25T15:34:51.348Z,490
2018-05-25T15:36:00.268Z,530
2018-05-25T15:37:09.142Z,550
2018-05-25T15:38:18.023Z,570
2018-05-25T15:39:26.899Z,610
2018-05-25T15:40:35.772Z,710
2018-05-25T15:41:44.644Z,865
2018-05-25T15:42:53.517Z,1225
2018-05-25T15:44:02.666Z,2055
2018-05-25T15:45:11.538Z,2340
2018-05-25T15:46:20.795Z,2005
2018-05-25T15:47:29.906Z,2200
2018-05-25T15:48:38.773Z,1090
2018-05-25T15:49:47.647Z,1940
2018-05-25T15:50:56.524Z,760
2018-05-25T15:52:05.399Z,395
2018-05-25T15:53:14.552Z,315
2018-05-25T15:54:23.426Z,275
2018-05-25T15:55:32.302Z,255
2018-05-25T15:56:41.177Z,240
2018-05-25T15:57:50.049Z,240
2018-05-25T15:58:59.085Z,240
2018-05-25T16:00:08.003Z,240